Impacts TAF Board INFO
FOR SITUATIONAL AWARENESS. NOT TO BE USED FOR FLIGHT PLANNING PURPOSES.
IDs:

KDEN - Denver Intl, CO, US

Issued at 0303 UTC 20 Nov 2017
Updated at 0353 UTC 20 Nov 2017
Potential Impact None Slight Moderate High
Time0253Z 20/04Z 20/05Z 20/06Z 20/07Z 20/08Z 20/09Z 20/10Z 20/11Z 20/12Z 20/13Z 20/14Z 20/15Z 20/16Z>>
Type OBS PRVL PRVL PRVL PRVL PRVL PRVL PRVL PRVL PRVL PRVL PRVL PRVL PRVL
VIS 10 >6 >6 >6 >6 >6 >6 >6 >6 >6 >6 >6 >6 >6
CIG 200 220 220 220 220 220 220 220 220 220 220 220 -- --
Cover BKN BKN BKN BKN BKN BKN BKN BKN BKN BKN BKN BKN SCT SCT
FltCat VFR VFR VFR VFR VFR VFR VFR VFR VFR VFR VFR VFR VFR VFR
WX -- -- -- -- -- -- -- -- -- -- -- -- -- --
WDir 250 250 200 200 200 200 200 200 200 200 200 200 240 240
WSpd 7 7 9 9 9 9 9 9 9 9 9 9 11 11
WGst -- -- -- -- -- -- -- -- -- -- -- -- -- --

Raw TAF
KDEN 200303Z 2003/2106 25007KT P6SM FEW140 BKN220
  FM200500 20009KT P6SM FEW140 BKN220
  FM201500 24011KT P6SM FEW140 SCT220
  FM201900 26012KT P6SM FEW130 SCT220
  FM202100 28014KT P6SM FEW080 SCT130 BKN220
  FM210300 33012KT P6SM FEW080 SCT130 BKN220


Raw METAR
KDEN 200253Z 25007KT 10SM BKN200 08/M13 A2997 RMK AO2 SLP129 T00831128 58003
KDEN 200153Z 28009KT 10SM BKN220 11/M17 A2997 RMK AO2 SLP128 T01061172
KDEN 200053Z 29011KT 10SM BKN200 11/M16 A2998 RMK AO2 SLP143 T01111161

METAR Board
Radar Display
Forecast Discussion

FOR SITUATIONAL AWARENESS. NOT TO BE USED FOR FLIGHT PLANNING PURPOSES.